createdAt,value
2022-10-25T00:30:55.988Z,13.67
2022-10-25T00:31:55.922Z,13.66
2022-10-25T00:32:55.941Z,13.67
2022-10-25T00:33:55.915Z,13.70
2022-10-25T00:34:55.896Z,13.69
2022-10-25T00:35:55.877Z,13.70
2022-10-25T00:36:55.879Z,13.69
2022-10-25T00:37:55.881Z,13.67
2022-10-25T00:38:55.845Z,13.64
2022-10-25T00:39:55.847Z,13.64
2022-10-25T00:40:55.828Z,13.64
2022-10-25T00:41:55.818Z,13.63
2022-10-25T00:42:55.813Z,13.60
2022-10-25T00:43:55.827Z,13.62
2022-10-25T00:44:55.803Z,13.62
2022-10-25T00:45:55.804Z,13.62
2022-10-25T00:46:55.785Z,13.63
2022-10-25T00:47:55.752Z,13.60
2022-10-25T00:48:55.766Z,13.60
2022-10-25T00:49:55.728Z,13.60
2022-10-25T00:50:55.709Z,13.62
2022-10-25T00:51:55.745Z,13.63
2022-10-25T00:52:55.696Z,13.63
2022-10-25T00:53:55.677Z,13.63
2022-10-25T00:54:55.759Z,13.63
2022-10-25T00:55:55.664Z,13.63
2022-10-25T00:56:55.651Z,13.62
2022-10-25T00:57:55.657Z,13.66
2022-10-25T00:58:55.618Z,13.64
2022-10-25T00:59:55.618Z,13.67
2022-10-25T01:00:55.645Z,13.69
2022-10-25T01:01:55.701Z,13.69
2022-10-25T01:03:55.619Z,13.73
2022-10-25T01:04:55.606Z,13.77
2022-10-25T01:05:55.617Z,13.73
2022-10-25T01:06:55.621Z,13.77
2022-10-25T01:07:55.539Z,13.77
2022-10-25T01:08:55.651Z,13.77
2022-10-25T01:09:55.615Z,13.77
2022-10-25T01:10:55.658Z,13.75
2022-10-25T01:11:55.558Z,13.73
2022-10-25T01:12:55.956Z,13.71
2022-10-25T01:13:55.585Z,13.70
2022-10-25T01:14:55.622Z,13.67
2022-10-25T01:20:56.042Z,13.64
2022-10-25T01:21:55.624Z,13.63
2022-10-25T01:22:55.626Z,13.63
2022-10-25T01:23:55.697Z,13.64
2022-10-25T01:24:55.710Z,13.66
2022-10-25T01:25:55.826Z,13.69
2022-10-25T01:26:55.695Z,13.69
2022-10-25T01:28:56.022Z,13.69
2022-10-25T01:29:56.195Z,13.73
2022-10-25T01:30:56.069Z,13.75
2022-10-25T01:31:55.707Z,13.75
2022-10-25T01:32:55.724Z,13.78
2022-10-25T01:33:55.547Z,13.82
2022-10-25T01:34:55.907Z,13.85
2022-10-25T01:35:55.638Z,13.87
2022-10-25T01:36:55.531Z,13.89
2022-10-25T01:37:55.709Z,13.89
2022-10-25T01:38:55.618Z,13.91
2022-10-25T01:39:55.686Z,13.95
2022-10-25T01:40:55.442Z,13.95
2022-10-25T01:41:55.906Z,13.96
2022-10-25T01:42:55.997Z,13.97
2022-10-25T01:43:55.596Z,14.00
2022-10-25T01:44:55.538Z,14.04
2022-10-25T01:45:55.607Z,14.03
2022-10-25T01:46:55.388Z,14.03
2022-10-25T01:47:55.525Z,14.07
2022-10-25T01:48:55.687Z,14.09
2022-10-25T01:49:55.456Z,14.09
2022-10-25T01:50:55.488Z,14.09
2022-10-25T01:51:55.287Z,14.12
2022-10-25T01:53:55.346Z,14.12
2022-10-25T01:54:55.316Z,14.10
2022-10-25T01:55:55.339Z,14.09
2022-10-25T01:56:55.310Z,14.06
2022-10-25T01:57:55.280Z,14.06
2022-10-25T01:58:55.225Z,14.06
2022-10-25T01:59:55.247Z,14.06
2022-10-25T02:00:55.272Z,14.07
2022-10-25T02:01:55.205Z,14.09
2022-10-25T02:02:55.221Z,14.09
2022-10-25T02:03:55.136Z,14.06
2022-10-25T02:04:55.188Z,14.06
2022-10-25T02:05:55.072Z,14.07
2022-10-25T02:06:55.079Z,14.07
2022-10-25T02:07:55.064Z,14.07
2022-10-25T02:08:55.054Z,14.07
2022-10-25T02:09:55.099Z,14.07
2022-10-25T02:10:55.042Z,14.12
2022-10-25T02:11:55.001Z,14.12
2022-10-25T02:12:55.020Z,14.10
2022-10-25T02:13:54.996Z,14.12
2022-10-25T02:14:54.988Z,14.12
2022-10-25T02:15:54.963Z,14.14
2022-10-25T02:16:54.975Z,14.15
2022-10-25T02:17:54.961Z,14.17
2022-10-25T02:18:54.943Z,14.18
2022-10-25T02:19:54.937Z,14.18
2022-10-25T02:20:54.943Z,14.18
2022-10-25T02:21:55.197Z,14.17
2022-10-25T02:22:55.048Z,14.15
2022-10-25T02:23:55.054Z,14.17
2022-10-25T02:24:55.192Z,14.18
2022-10-25T02:25:55.016Z,14.18
2022-10-25T02:26:54.982Z,14.20
2022-10-25T02:27:55.046Z,14.17
2022-10-25T02:28:55.062Z,14.17
2022-10-25T02:29:55.403Z,14.18
2022-10-25T02:30:54.991Z,14.21
2022-10-25T02:31:54.971Z,14.22
2022-10-25T02:32:54.923Z,14.20
2022-10-25T02:33:55.026Z,14.20
2022-10-25T02:34:54.983Z,14.20
2022-10-25T02:35:54.873Z,14.20
2022-10-25T02:36:54.827Z,14.18
2022-10-25T02:37:54.733Z,14.18
2022-10-25T02:38:54.766Z,14.20
2022-10-25T02:39:54.702Z,14.20
2022-10-25T02:40:54.701Z,14.18
2022-10-25T02:41:54.687Z,14.20
2022-10-25T02:45:19.841Z,14.27
2022-10-25T02:46:19.817Z,14.24
2022-10-25T02:47:20.005Z,14.25
2022-10-25T02:48:19.966Z,14.25
2022-10-25T02:49:19.779Z,14.25
2022-10-25T02:50:19.787Z,14.28
2022-10-25T02:51:19.757Z,14.32
2022-10-25T02:52:19.759Z,14.32
2022-10-25T02:53:19.977Z,14.33
2022-10-25T02:54:19.846Z,14.35
2022-10-25T02:55:19.802Z,14.32
2022-10-25T02:56:19.710Z,14.32
2022-10-25T02:57:19.703Z,14.33
2022-10-25T02:58:19.866Z,14.33
2022-10-25T02:59:19.689Z,14.33
2022-10-25T03:00:19.693Z,14.35
2022-10-25T03:01:19.766Z,14.37
2022-10-25T03:02:19.652Z,14.37
2022-10-25T03:03:19.640Z,14.36
2022-10-25T03:04:19.627Z,14.35
2022-10-25T03:05:19.628Z,14.39
2022-10-25T03:06:19.770Z,14.39
2022-10-25T03:07:19.588Z,14.37
2022-10-25T03:08:19.616Z,14.36
2022-10-25T03:09:19.573Z,14.36
2022-10-25T03:10:19.564Z,14.36
2022-10-25T03:11:19.540Z,14.35
2022-10-25T03:12:19.525Z,14.35
2022-10-25T03:13:19.521Z,14.35
2022-10-25T03:14:19.512Z,14.36
2022-10-25T03:15:19.523Z,14.33
2022-10-25T03:16:19.494Z,14.35
2022-10-25T03:17:19.486Z,14.35
2022-10-25T03:18:19.477Z,14.35
2022-10-25T03:19:19.474Z,14.33
2022-10-25T03:20:19.469Z,14.36
2022-10-25T03:21:19.434Z,14.39
2022-10-25T03:22:19.422Z,14.40
2022-10-25T03:23:19.423Z,14.40
2022-10-25T03:24:19.408Z,14.37
2022-10-25T03:25:19.475Z,14.39
2022-10-25T03:26:19.452Z,14.37
2022-10-25T03:27:19.482Z,14.37
2022-10-25T03:28:19.388Z,14.39
2022-10-25T03:29:19.711Z,14.42
2022-10-25T03:30:19.376Z,14.43
2022-10-25T03:31:19.342Z,14.40
2022-10-25T03:32:19.312Z,14.43
2022-10-25T03:33:19.452Z,14.45
2022-10-25T03:34:19.369Z,14.45
2022-10-25T03:35:19.270Z,14.46
2022-10-25T03:36:19.266Z,14.43
2022-10-25T03:37:19.282Z,14.43
2022-10-25T03:38:19.259Z,14.42
2022-10-25T03:39:19.251Z,14.43
2022-10-25T03:40:19.241Z,14.43
2022-10-25T03:41:19.222Z,14.43
2022-10-25T03:42:19.208Z,14.43
2022-10-25T03:43:19.351Z,14.45
2022-10-25T03:44:19.403Z,14.46
2022-10-25T03:45:19.192Z,14.50
2022-10-25T03:46:19.157Z,14.50
2022-10-25T03:47:19.145Z,14.50
2022-10-25T03:48:19.155Z,14.50
2022-10-25T03:49:19.126Z,14.47
2022-10-25T03:50:19.128Z,14.46
2022-10-25T03:51:19.099Z,14.45
2022-10-25T03:52:19.120Z,14.47
2022-10-25T03:53:19.143Z,14.47
2022-10-25T03:54:19.283Z,14.50
2022-10-25T03:55:19.279Z,14.50
2022-10-25T03:56:19.348Z,14.50
2022-10-25T03:57:19.473Z,14.47
2022-10-25T03:58:19.505Z,14.47
2022-10-25T03:59:19.082Z,14.50
2022-10-25T04:00:19.311Z,14.43
2022-10-25T04:01:19.445Z,14.45
2022-10-25T04:02:19.031Z,14.43
2022-10-25T04:03:19.302Z,14.43
2022-10-25T04:04:18.967Z,14.45
2022-10-25T04:05:18.953Z,14.43
2022-10-25T04:06:19.060Z,14.43
2022-10-25T04:07:19.027Z,14.42
2022-10-25T04:08:19.010Z,14.45
2022-10-25T04:09:19.065Z,14.45
2022-10-25T04:10:19.600Z,14.46
2022-10-25T04:11:18.971Z,14.47
2022-10-25T04:12:18.969Z,14.47
2022-10-25T04:13:19.000Z,14.50
2022-10-25T04:14:18.883Z,14.51
2022-10-25T04:15:18.880Z,14.52
2022-10-25T04:16:19.222Z,14.51
2022-10-25T04:17:18.833Z,14.54
2022-10-25T04:18:18.818Z,14.54
2022-10-25T04:19:18.816Z,14.52
2022-10-25T04:20:18.795Z,14.52
2022-10-25T04:21:19.013Z,14.51
2022-10-25T04:22:18.777Z,14.51
2022-10-25T04:23:18.773Z,14.47
2022-10-25T04:24:18.770Z,14.46
2022-10-25T04:25:18.721Z,14.47
2022-10-25T04:26:18.740Z,14.47
2022-10-25T04:27:19.157Z,14.46
2022-10-25T04:28:18.891Z,14.43
2022-10-25T04:29:18.891Z,14.42
2022-10-25T04:30:18.938Z,14.45
2022-10-25T04:31:18.834Z,14.43
2022-10-25T04:33:18.823Z,14.45
2022-10-25T04:34:18.701Z,14.45
2022-10-25T04:35:21.075Z,14.42
2022-10-25T04:36:18.684Z,14.42
2022-10-25T04:37:19.184Z,14.36
2022-10-25T04:38:18.932Z,14.39
2022-10-25T04:39:18.803Z,14.37
2022-10-25T04:40:22.536Z,14.35
2022-10-25T04:41:19.685Z,14.39
2022-10-25T04:42:18.585Z,14.37
2022-10-25T04:43:18.606Z,14.39
2022-10-25T04:44:18.775Z,14.42
2022-10-25T04:45:18.709Z,14.42
2022-10-25T04:46:18.726Z,14.43
2022-10-25T04:47:18.813Z,14.43
2022-10-25T04:48:18.764Z,14.45
2022-10-25T04:49:18.785Z,14.45
2022-10-25T04:50:18.630Z,14.42
2022-10-25T04:51:18.641Z,14.43
2022-10-25T04:52:18.784Z,14.43
2022-10-25T04:53:18.760Z,14.42
2022-10-25T04:54:19.099Z,14.42
2022-10-25T04:55:18.567Z,14.43
2022-10-25T04:56:18.568Z,14.43
2022-10-25T04:57:19.525Z,14.46
2022-10-25T04:58:18.901Z,14.46
2022-10-25T04:59:18.837Z,14.46
2022-10-25T05:00:18.818Z,14.46
2022-10-25T05:01:18.772Z,14.46
2022-10-25T05:02:18.987Z,14.45
2022-10-25T05:03:19.318Z,14.43
2022-10-25T05:04:18.868Z,14.42
2022-10-25T05:05:18.743Z,14.40
2022-10-25T05:06:18.992Z,14.42
2022-10-25T05:07:20.007Z,14.40
2022-10-25T05:08:18.585Z,14.42
2022-10-25T05:09:24.745Z,14.43
2022-10-25T05:10:18.559Z,14.45
2022-10-25T05:11:18.937Z,14.47
2022-10-25T05:12:18.787Z,14.46
2022-10-25T05:13:18.578Z,14.45
2022-10-25T05:14:19.495Z,14.45
2022-10-25T05:15:18.737Z,14.45
2022-10-25T05:16:21.821Z,14.43
2022-10-25T05:17:18.294Z,14.43
2022-10-25T05:18:18.451Z,14.43
2022-10-25T05:19:18.734Z,14.42
2022-10-25T05:20:18.803Z,14.42
2022-10-25T05:21:18.798Z,14.40
2022-10-25T05:22:18.738Z,14.43
2022-10-25T05:23:18.331Z,14.43
2022-10-25T05:24:18.443Z,14.43
2022-10-25T05:25:18.285Z,14.43
2022-10-25T05:26:18.269Z,14.45
2022-10-25T05:27:18.558Z,14.45
2022-10-25T05:28:18.418Z,14.43
2022-10-25T05:29:18.224Z,14.43
2022-10-25T05:30:19.187Z,14.42
2022-10-25T05:31:18.351Z,14.40
2022-10-25T05:32:18.317Z,14.39
2022-10-25T05:33:18.167Z,14.37
2022-10-25T05:34:18.551Z,14.35
2022-10-25T05:35:18.331Z,14.36
2022-10-25T05:36:18.190Z,14.32
2022-10-25T05:37:18.202Z,14.33
2022-10-25T05:38:18.248Z,14.33
2022-10-25T05:39:18.487Z,14.35
2022-10-25T05:40:18.296Z,14.33
2022-10-25T05:41:18.287Z,14.35
2022-10-25T05:42:19.161Z,14.36
2022-10-25T05:43:18.209Z,14.35
2022-10-25T05:44:18.112Z,14.35
2022-10-25T05:45:18.016Z,14.35
2022-10-25T05:46:20.407Z,14.33
2022-10-25T05:47:18.457Z,14.33
2022-10-25T05:48:18.110Z,14.29
2022-10-25T05:49:18.156Z,14.27
2022-10-25T05:50:18.168Z,14.25
2022-10-25T05:51:33.013Z,14.27
2022-10-25T05:52:19.023Z,14.27
2022-10-25T05:53:17.949Z,14.28
2022-10-25T05:54:17.890Z,14.27
2022-10-25T05:55:18.094Z,14.25
2022-10-25T05:56:18.034Z,14.27
2022-10-25T05:57:18.191Z,14.28
2022-10-25T05:58:18.187Z,14.27
2022-10-25T05:59:18.086Z,14.28
2022-10-25T06:00:18.179Z,14.27
2022-10-25T06:01:17.887Z,14.28
2022-10-25T06:02:20.138Z,14.25
2022-10-25T06:03:17.981Z,14.29
2022-10-25T06:04:18.422Z,14.28
2022-10-25T06:05:17.913Z,14.28
2022-10-25T06:06:17.904Z,14.28
2022-10-25T06:07:17.981Z,14.28
2022-10-25T06:08:17.833Z,14.29
2022-10-25T06:09:18.029Z,14.29
2022-10-25T06:10:17.780Z,14.32
2022-10-25T06:11:17.723Z,14.32
2022-10-25T06:12:17.926Z,14.28
2022-10-25T06:13:18.054Z,14.29
2022-10-25T06:14:17.858Z,14.32
2022-10-25T06:15:17.819Z,14.29
2022-10-25T06:16:17.695Z,14.28
2022-10-25T06:17:17.604Z,14.33
2022-10-25T06:18:17.638Z,14.33
2022-10-25T06:19:17.643Z,14.33
2022-10-25T06:20:17.614Z,14.36
2022-10-25T06:21:17.741Z,14.35
2022-10-25T06:22:17.653Z,14.35
2022-10-25T06:23:17.561Z,14.37
2022-10-25T06:24:17.654Z,14.37
2022-10-25T06:25:17.745Z,14.39
2022-10-25T06:26:17.516Z,14.40
2022-10-25T06:27:17.516Z,14.39
2022-10-25T06:28:17.618Z,14.40
2022-10-25T06:29:17.473Z,14.39
2022-10-25T06:30:24.452Z,14.39
2022-10-25T06:31:17.382Z,14.39
2022-10-25T06:32:17.371Z,14.39
2022-10-25T06:33:17.373Z,14.39
2022-10-25T06:34:17.339Z,14.39
2022-10-25T06:35:18.433Z,14.39
2022-10-25T06:36:17.334Z,14.39
2022-10-25T06:37:17.363Z,14.39
2022-10-25T06:38:17.313Z,14.39
2022-10-25T06:39:17.304Z,14.40
2022-10-25T06:40:17.295Z,14.40
2022-10-25T06:41:17.326Z,14.39
2022-10-25T06:42:17.258Z,14.37
2022-10-25T06:43:17.259Z,14.37
2022-10-25T06:44:17.244Z,14.36
2022-10-25T06:45:17.235Z,14.36
2022-10-25T06:46:17.219Z,14.33
2022-10-25T06:47:18.120Z,14.35
2022-10-25T06:48:17.210Z,14.35
2022-10-25T06:49:17.200Z,14.36
2022-10-25T06:50:17.181Z,14.35
2022-10-25T06:51:17.167Z,14.36
2022-10-25T06:52:17.160Z,14.35
2022-10-25T06:53:17.154Z,14.35
2022-10-25T06:54:17.146Z,14.37
2022-10-25T06:55:17.126Z,14.37
2022-10-25T06:56:17.118Z,14.36
2022-10-25T06:57:17.112Z,14.36
2022-10-25T06:58:17.090Z,14.36
2022-10-25T06:59:17.098Z,14.36
2022-10-25T07:00:17.067Z,14.39
2022-10-25T07:01:17.154Z,14.39
2022-10-25T07:02:17.148Z,14.39
2022-10-25T07:03:17.036Z,14.37
2022-10-25T07:04:17.026Z,14.40
2022-10-25T07:05:17.023Z,14.43
2022-10-25T07:06:17.247Z,14.45
2022-10-25T07:07:16.999Z,14.47
2022-10-25T07:08:16.989Z,14.46
2022-10-25T07:09:17.074Z,14.47
2022-10-25T07:10:16.968Z,14.50
2022-10-25T07:11:16.959Z,14.51
2022-10-25T07:12:16.947Z,14.51
2022-10-25T07:13:16.932Z,14.52
2022-10-25T07:14:16.923Z,14.57
2022-10-25T07:15:16.978Z,14.55
2022-10-25T07:16:16.901Z,14.54
2022-10-25T07:17:16.931Z,14.57
2022-10-25T07:18:16.882Z,14.58
2022-10-25T07:19:16.879Z,14.57
2022-10-25T07:20:16.855Z,14.60
2022-10-25T07:21:16.851Z,14.57
2022-10-25T07:22:16.816Z,14.57
2022-10-25T07:23:16.828Z,14.58
2022-10-25T07:24:16.819Z,14.55
2022-10-25T07:25:16.816Z,14.57
2022-10-25T07:26:16.795Z,14.58
2022-10-25T07:27:16.792Z,14.58
2022-10-25T07:28:16.763Z,14.57
2022-10-25T07:29:16.770Z,14.58
2022-10-25T07:30:16.829Z,14.60
2022-10-25T07:31:16.833Z,14.60
2022-10-25T07:32:16.802Z,14.58
2022-10-25T07:33:16.848Z,14.60
2022-10-25T07:34:19.005Z,14.61
2022-10-25T07:35:16.966Z,14.64
2022-10-25T07:36:16.690Z,14.65
2022-10-25T07:37:16.755Z,14.65
2022-10-25T07:38:16.668Z,14.68
2022-10-25T07:39:16.655Z,14.68
2022-10-25T07:40:16.637Z,14.69
2022-10-25T07:41:16.627Z,14.70
2022-10-25T07:42:16.618Z,14.70
2022-10-25T07:43:16.615Z,14.72
2022-10-25T07:44:20.223Z,14.72
2022-10-25T07:45:20.379Z,14.75
2022-10-25T07:46:17.578Z,14.77
2022-10-25T07:47:16.749Z,14.77
2022-10-25T07:48:16.544Z,14.77
2022-10-25T07:49:16.543Z,14.78
2022-10-25T07:50:16.527Z,14.80
2022-10-25T07:51:16.537Z,14.78
2022-10-25T07:52:16.509Z,14.80
2022-10-25T07:53:16.506Z,14.81
2022-10-25T07:54:16.482Z,14.81
2022-10-25T07:55:16.613Z,14.80
2022-10-25T07:56:19.022Z,14.84
2022-10-25T07:57:17.459Z,14.84
2022-10-25T07:58:16.457Z,14.86
2022-10-25T07:59:16.437Z,14.83
2022-10-25T08:00:16.495Z,14.84
2022-10-25T08:01:16.688Z,14.84
2022-10-25T08:02:16.416Z,14.84
2022-10-25T08:03:16.482Z,14.88
2022-10-25T08:04:16.393Z,14.86
2022-10-25T08:05:16.389Z,14.84
2022-10-25T08:06:16.552Z,14.86
2022-10-25T08:07:16.350Z,14.91
2022-10-25T08:08:16.385Z,14.89
2022-10-25T08:09:36.763Z,14.89
2022-10-25T08:10:17.327Z,14.94
2022-10-25T08:11:16.302Z,14.94
2022-10-25T08:12:21.617Z,14.94
2022-10-25T08:13:17.288Z,14.96
2022-10-25T08:14:16.341Z,14.94
2022-10-25T08:15:16.265Z,14.95
2022-10-25T08:16:16.245Z,14.96
2022-10-25T08:17:16.238Z,14.96
2022-10-25T08:18:16.254Z,14.99
2022-10-25T08:19:16.219Z,15.01
2022-10-25T08:20:16.217Z,15.02
2022-10-25T08:21:16.196Z,15.07
2022-10-25T08:22:16.187Z,15.07
2022-10-25T08:23:16.167Z,15.10
2022-10-25T08:24:16.201Z,15.07
2022-10-25T08:25:16.145Z,15.07
2022-10-25T08:26:16.151Z,15.10
2022-10-25T08:27:16.138Z,15.11
2022-10-25T08:28:16.110Z,15.10
2022-10-25T08:29:16.107Z,15.09
2022-10-25T08:30:16.108Z,15.07
2022-10-25T08:31:16.082Z,15.07
2022-10-25T08:32:16.160Z,15.10
2022-10-25T08:33:16.070Z,15.11
2022-10-25T08:34:16.047Z,15.13
2022-10-25T08:35:16.052Z,15.14
2022-10-25T08:36:16.052Z,15.13
2022-10-25T08:37:16.029Z,15.14
2022-10-25T08:38:16.025Z,15.16
2022-10-25T08:39:16.995Z,15.16
2022-10-25T08:40:15.993Z,15.17
2022-10-25T08:41:16.432Z,15.19
2022-10-25T08:42:15.995Z,15.20
2022-10-25T08:43:15.966Z,15.25
2022-10-25T08:44:15.958Z,15.31
2022-10-25T08:45:15.933Z,15.36
2022-10-25T08:46:15.945Z,15.44
2022-10-25T08:47:15.930Z,15.59
2022-10-25T08:48:15.906Z,15.60
2022-10-25T08:49:15.904Z,15.68
2022-10-25T08:50:15.884Z,15.74
2022-10-25T08:51:15.874Z,15.68
2022-10-25T08:52:17.360Z,15.64
2022-10-25T08:53:15.857Z,15.64
2022-10-25T08:54:15.839Z,15.69
2022-10-25T08:55:15.834Z,15.67
2022-10-25T08:56:17.273Z,15.69
2022-10-25T08:57:16.573Z,15.72
2022-10-25T08:58:15.802Z,15.67
2022-10-25T08:59:15.789Z,15.57
2022-10-25T09:00:16.102Z,15.62
2022-10-25T09:01:15.854Z,15.57
2022-10-25T09:02:15.831Z,15.72
2022-10-25T09:03:15.738Z,15.75
2022-10-25T09:04:15.729Z,15.71
2022-10-25T09:05:15.725Z,15.75
2022-10-25T09:06:15.722Z,15.71
2022-10-25T09:07:15.702Z,15.71
2022-10-25T09:08:15.710Z,15.80
2022-10-25T09:09:15.671Z,16.00
2022-10-25T09:10:15.851Z,16.09
2022-10-25T09:11:15.723Z,16.30
2022-10-25T09:12:15.647Z,16.46
2022-10-25T09:13:15.669Z,16.56
2022-10-25T09:14:15.635Z,16.53
2022-10-25T09:15:15.606Z,16.43
2022-10-25T09:16:15.597Z,16.49
2022-10-25T09:17:15.590Z,16.61
2022-10-25T09:18:15.588Z,16.42
2022-10-25T09:19:15.813Z,16.23
2022-10-25T09:20:15.561Z,16.05
2022-10-25T09:21:18.664Z,16.02
2022-10-25T09:22:16.552Z,16.00
2022-10-25T09:23:15.569Z,15.94
2022-10-25T09:24:15.517Z,15.93
2022-10-25T09:25:15.582Z,15.90
2022-10-25T09:26:15.498Z,15.94
2022-10-25T09:27:15.489Z,15.96
2022-10-25T09:28:15.481Z,15.96
2022-10-25T09:29:15.497Z,15.97
2022-10-25T09:30:15.448Z,15.96
2022-10-25T09:31:15.453Z,15.93
2022-10-25T09:32:15.461Z,15.93
2022-10-25T09:34:15.414Z,16.00
2022-10-25T09:35:15.398Z,16.02
2022-10-25T09:36:15.389Z,16.00
2022-10-25T09:37:15.380Z,15.96
2022-10-25T09:38:15.361Z,15.94
2022-10-25T09:39:16.200Z,15.90
2022-10-25T09:40:15.354Z,15.84
2022-10-25T09:41:15.441Z,15.84
2022-10-25T09:42:15.331Z,15.87
2022-10-25T09:43:15.306Z,15.82
2022-10-25T09:44:15.313Z,15.76
2022-10-25T09:45:15.290Z,15.75
2022-10-25T09:46:15.272Z,15.72
2022-10-25T09:47:15.267Z,15.67
2022-10-25T09:48:15.257Z,15.76
2022-10-25T09:49:15.243Z,15.78
2022-10-25T09:50:15.250Z,15.75
2022-10-25T09:51:15.227Z,15.75
2022-10-25T09:52:15.235Z,15.80
2022-10-25T09:53:16.684Z,15.86
2022-10-25T09:54:15.195Z,15.90
2022-10-25T09:55:15.180Z,15.94
2022-10-25T09:56:15.177Z,15.96
2022-10-25T09:57:15.168Z,15.96
2022-10-25T09:58:15.154Z,15.96
2022-10-25T09:59:15.145Z,15.92
2022-10-25T10:00:16.739Z,15.86
2022-10-25T10:01:15.206Z,15.84
2022-10-25T10:02:15.190Z,15.78
2022-10-25T10:03:15.100Z,15.76
2022-10-25T10:04:15.070Z,15.76
2022-10-25T10:05:15.073Z,15.76
2022-10-25T10:06:15.154Z,15.80
2022-10-25T10:07:15.113Z,15.83
2022-10-25T10:08:15.039Z,15.89
2022-10-25T10:09:15.020Z,15.89
2022-10-25T10:10:15.159Z,15.86
2022-10-25T10:11:15.013Z,15.83
2022-10-25T10:12:15.044Z,15.82
2022-10-25T10:13:14.983Z,15.82
2022-10-25T10:14:14.972Z,15.82
2022-10-25T10:15:14.973Z,15.84
2022-10-25T10:16:14.949Z,15.84
2022-10-25T10:17:14.935Z,15.89
2022-10-25T10:18:14.930Z,15.89
2022-10-25T10:19:14.930Z,15.90
2022-10-25T10:20:15.062Z,15.90
2022-10-25T10:21:14.919Z,15.90
2022-10-25T10:22:14.904Z,15.86
2022-10-25T10:23:14.882Z,15.86
2022-10-25T10:24:14.877Z,15.84
2022-10-25T10:25:14.885Z,15.84
2022-10-25T10:26:14.843Z,15.86
2022-10-25T10:27:14.820Z,15.84
2022-10-25T10:28:14.848Z,15.86
2022-10-25T10:29:16.861Z,15.83
2022-10-25T10:30:14.801Z,15.84
2022-10-25T10:31:14.790Z,15.87
2022-10-25T10:32:14.781Z,15.84
2022-10-25T10:33:14.777Z,15.87
2022-10-25T10:34:14.757Z,15.92
2022-10-25T10:35:14.750Z,15.93
2022-10-25T10:36:14.730Z,15.93
2022-10-25T10:37:14.716Z,15.94
2022-10-25T10:38:14.723Z,15.96
2022-10-25T10:39:14.710Z,16.00
2022-10-25T10:40:14.694Z,16.02
2022-10-25T10:41:14.684Z,16.01
2022-10-25T10:42:15.194Z,16.02
2022-10-25T10:43:14.718Z,16.05
2022-10-25T10:44:14.649Z,16.04
2022-10-25T10:45:14.630Z,15.93
2022-10-25T10:46:14.612Z,15.90
2022-10-25T10:47:14.628Z,15.97
2022-10-25T10:48:14.599Z,16.02
2022-10-25T10:49:14.599Z,16.14
2022-10-25T10:50:14.716Z,16.21
2022-10-25T10:51:39.073Z,16.25
2022-10-25T10:52:15.589Z,16.46
2022-10-25T10:53:14.553Z,16.64
2022-10-25T10:54:14.545Z,16.75
2022-10-25T10:55:14.521Z,16.89
2022-10-25T10:56:14.527Z,16.94
2022-10-25T10:57:14.500Z,16.96
2022-10-25T10:58:14.500Z,16.81
2022-10-25T10:59:14.480Z,16.89
2022-10-25T11:00:14.582Z,17.04
2022-10-25T11:01:14.559Z,17.03
2022-10-25T11:02:14.604Z,16.93
2022-10-25T11:03:14.429Z,16.82
2022-10-25T11:04:14.446Z,16.79
2022-10-25T11:05:14.424Z,16.81
2022-10-25T11:06:14.410Z,16.83
2022-10-25T11:07:14.392Z,17.00
2022-10-25T11:08:14.401Z,17.15
2022-10-25T11:09:14.391Z,17.31
2022-10-25T11:10:14.375Z,17.18
2022-10-25T11:11:14.359Z,17.26
2022-10-25T11:12:14.349Z,17.23
2022-10-25T11:13:14.320Z,17.18
2022-10-25T11:14:14.525Z,17.14
2022-10-25T11:15:14.309Z,17.30
2022-10-25T11:16:14.296Z,17.51
2022-10-25T11:17:14.290Z,17.64
2022-10-25T11:18:14.281Z,17.68
2022-10-25T11:19:14.268Z,17.56
2022-10-25T11:20:14.255Z,17.48
2022-10-25T11:21:14.260Z,17.41
2022-10-25T11:22:18.082Z,17.25
2022-10-25T11:23:14.232Z,17.15
2022-10-25T11:24:14.218Z,17.00
2022-10-25T11:25:14.208Z,16.86
2022-10-25T11:26:14.209Z,16.79
2022-10-25T11:27:14.212Z,16.78
2022-10-25T11:28:14.184Z,16.75
2022-10-25T11:29:14.177Z,16.73
2022-10-25T11:30:14.161Z,16.68
2022-10-25T11:31:14.140Z,16.71
2022-10-25T11:32:14.128Z,16.76
2022-10-25T11:33:14.223Z,16.73
2022-10-25T11:34:14.110Z,16.71
2022-10-25T11:35:14.105Z,16.75
2022-10-25T11:36:14.087Z,16.73
2022-10-25T11:37:14.537Z,16.70
2022-10-25T11:38:14.588Z,16.70
2022-10-25T11:39:14.055Z,16.75
2022-10-25T11:40:14.056Z,16.76
2022-10-25T11:41:14.033Z,16.81
2022-10-25T11:42:14.083Z,16.82
2022-10-25T11:43:14.000Z,16.76
2022-10-25T11:44:14.000Z,16.70
2022-10-25T11:45:14.040Z,16.68
2022-10-25T11:46:14.008Z,16.68
2022-10-25T11:47:13.975Z,16.63
2022-10-25T11:48:13.965Z,16.58
2022-10-25T11:49:13.940Z,16.52
2022-10-25T11:50:13.936Z,16.46
2022-10-25T11:51:13.919Z,16.42
2022-10-25T11:53:13.912Z,16.70
2022-10-25T11:54:14.021Z,16.81
2022-10-25T11:55:14.206Z,16.76
2022-10-25T11:56:13.868Z,16.73
2022-10-25T11:57:13.854Z,16.75
2022-10-25T11:58:13.860Z,16.75
2022-10-25T11:59:13.837Z,16.73
2022-10-25T12:00:13.939Z,16.68
2022-10-25T12:01:13.874Z,16.70
2022-10-25T12:02:13.856Z,16.73
2022-10-25T12:03:13.839Z,16.81
2022-10-25T12:04:13.791Z,16.88
2022-10-25T12:05:13.764Z,16.83
2022-10-25T12:06:13.953Z,16.93
2022-10-25T12:07:13.761Z,17.22
2022-10-25T12:08:13.752Z,17.52
2022-10-25T12:09:13.722Z,17.64
2022-10-25T12:10:13.718Z,17.59
2022-10-25T12:11:16.391Z,17.51
2022-10-25T12:12:14.714Z,17.46
2022-10-25T12:13:13.694Z,17.52
2022-10-25T12:14:13.676Z,17.71
2022-10-25T12:15:13.670Z,17.93
2022-10-25T12:16:13.905Z,18.12
2022-10-25T12:17:13.641Z,18.37
2022-10-25T12:18:13.653Z,18.57
2022-10-25T12:19:13.624Z,18.55
2022-10-25T12:20:13.622Z,18.45
2022-10-25T12:21:13.601Z,18.30
2022-10-25T12:22:13.606Z,18.11
2022-10-25T12:23:13.593Z,18.20
2022-10-25T12:24:13.585Z,18.12
2022-10-25T12:25:13.551Z,18.23
2022-10-25T12:26:13.566Z,18.35
2022-10-25T12:27:13.533Z,18.45
2022-10-25T12:28:13.538Z,18.30
2022-10-25T12:29:13.520Z,18.07
2022-10-25T12:30:13.571Z,17.84
2022-10-25T12:31:13.514Z,17.51
2022-10-25T12:32:13.496Z,17.22
2022-10-25T12:33:13.473Z,17.30
2022-10-25T12:34:13.470Z,17.38
2022-10-25T12:35:13.457Z,17.52
2022-10-25T12:36:13.449Z,17.51
2022-10-25T12:37:13.434Z,17.18
2022-10-25T12:38:13.450Z,17.01
2022-10-25T12:39:13.429Z,17.04
2022-10-25T12:40:13.530Z,17.01
2022-10-25T12:41:13.393Z,16.89
2022-10-25T12:42:17.315Z,16.94
2022-10-25T12:43:13.355Z,16.97
2022-10-25T12:44:13.368Z,17.11
2022-10-25T12:45:13.358Z,17.16
2022-10-25T12:46:13.337Z,17.01
2022-10-25T12:47:13.381Z,16.98
2022-10-25T12:48:13.325Z,17.04
2022-10-25T12:49:13.312Z,17.07
2022-10-25T12:50:13.371Z,17.12
2022-10-25T12:51:15.348Z,17.26
2022-10-25T12:52:13.280Z,17.33
2022-10-25T12:53:13.260Z,17.33
2022-10-25T12:54:13.337Z,17.33
2022-10-25T12:55:13.234Z,17.54
2022-10-25T12:56:13.229Z,17.78
2022-10-25T12:57:13.269Z,18.03
2022-10-25T12:58:13.207Z,18.39
2022-10-25T12:59:13.211Z,18.63
2022-10-25T13:00:13.394Z,18.65
2022-10-25T13:01:13.269Z,18.29
2022-10-25T13:02:13.162Z,18.18
2022-10-25T13:03:17.061Z,18.17
2022-10-25T13:04:14.148Z,18.14
2022-10-25T13:05:13.188Z,17.96
2022-10-25T13:06:17.319Z,18.02
2022-10-25T13:07:13.136Z,17.77
2022-10-25T13:08:13.151Z,17.62
2022-10-25T13:09:13.096Z,17.56
2022-10-25T13:10:13.161Z,17.44
2022-10-25T13:11:13.092Z,17.62
2022-10-25T13:12:13.077Z,17.89
2022-10-25T13:13:13.054Z,18.33
2022-10-25T13:14:13.030Z,18.47
2022-10-25T13:15:13.027Z,18.73
2022-10-25T13:16:13.027Z,18.95
2022-10-25T13:17:13.019Z,18.85
2022-10-25T13:18:13.457Z,18.91
2022-10-25T13:19:14.648Z,19.25
2022-10-25T13:20:12.998Z,19.43
2022-10-25T13:21:12.971Z,18.90
2022-10-25T13:22:12.949Z,18.88
2022-10-25T13:23:12.949Z,18.73
2022-10-25T13:24:12.957Z,19.04
2022-10-25T13:25:12.937Z,19.33
2022-10-25T13:26:12.923Z,19.04
2022-10-25T13:27:12.909Z,18.76
2022-10-25T13:28:12.885Z,18.80
2022-10-25T13:29:12.896Z,18.51
2022-10-25T13:30:12.904Z,18.69
2022-10-25T13:31:12.861Z,18.78
2022-10-25T13:32:12.850Z,18.41
2022-10-25T13:33:12.841Z,18.65
2022-10-25T13:34:12.826Z,19.04
2022-10-25T13:35:12.828Z,19.02
2022-10-25T13:36:12.820Z,19.44